N723AN KPRB-KFUL
Flight info
| Callsign | N723AN |
|---|---|
| Flight time | 1h 16m |
| Altitude | 21000 |
| Route | LHS V459 SLI |
| Aircraft | C414/L-VGD/C |
Departure
| Time | 2026-04-26 04:53 |
|---|---|
| Airport | Paso Robles Municipal Airport (KPRB) |
Arrival
| Time | 2026-04-26 06:09 |
|---|---|
| Airport | Fullerton Municipal Airport (KFUL) |
| Time | Latitude | Longitude | Altitude | Speed | Heading |
|---|---|---|---|---|---|
| 2026-04-26 04:36 | 35.67409 | -120.63652 | 814 ft | 0 kts | 270° |
| 2026-04-26 04:47 | 35.67402 | -120.63669 | 814 ft | 6 kts | 206° |
| 2026-04-26 04:47 | 35.67383 | -120.63638 | 814 ft | 7 kts | 89° |
| 2026-04-26 04:47 | 35.67385 | -120.63555 | 814 ft | 13 kts | 85° |
| 2026-04-26 04:47 | 35.67389 | -120.63394 | 813 ft | 20 kts | 93° |
| 2026-04-26 04:48 | 35.67389 | -120.63260 | 813 ft | 12 kts | 88° |
| 2026-04-26 04:48 | 35.67414 | -120.63176 | 812 ft | 11 kts | 33° |
| 2026-04-26 04:48 | 35.67494 | -120.63121 | 812 ft | 14 kts | 28° |
| 2026-04-26 04:49 | 35.67589 | -120.63058 | 811 ft | 15 kts | 30° |
| 2026-04-26 04:49 | 35.67680 | -120.62999 | 811 ft | 14 kts | 30° |
| 2026-04-26 04:49 | 35.67759 | -120.62947 | 810 ft | 13 kts | 28° |
| 2026-04-26 04:49 | 35.67850 | -120.62884 | 810 ft | 17 kts | 28° |
| 2026-04-26 04:50 | 35.67963 | -120.62812 | 809 ft | 18 kts | 30° |
| 2026-04-26 04:50 | 35.68051 | -120.62749 | 807 ft | 12 kts | 40° |
| 2026-04-26 04:50 | 35.68062 | -120.62697 | 807 ft | 0 kts | 125° |
| 2026-04-26 04:51 | 35.68061 | -120.62694 | 807 ft | 4 kts | 111° |
| 2026-04-26 04:52 | 35.68060 | -120.62629 | 806 ft | 8 kts | 95° |
| 2026-04-26 04:52 | 35.68031 | -120.62609 | 807 ft | 6 kts | 214° |
| 2026-04-26 04:52 | 35.67950 | -120.62664 | 808 ft | 34 kts | 209° |
| 2026-04-26 04:52 | 35.67584 | -120.62909 | 813 ft | 83 kts | 208° |
| 2026-04-26 04:53 | 35.67015 | -120.63284 | 948 ft | 98 kts | 210° |
| 2026-04-26 04:53 | 35.66417 | -120.63697 | 1206 ft | 103 kts | 210° |
| 2026-04-26 04:53 | 35.65758 | -120.64130 | 1516 ft | 110 kts | 205° |
| 2026-04-26 04:53 | 35.65026 | -120.64341 | 1903 ft | 111 kts | 173° |
| 2026-04-26 04:54 | 35.64378 | -120.63790 | 2169 ft | 119 kts | 121° |
| 2026-04-26 04:54 | 35.64043 | -120.62871 | 2507 ft | 118 kts | 113° |
| 2026-04-26 04:54 | 35.63790 | -120.61899 | 2824 ft | 121 kts | 110° |
| 2026-04-26 04:54 | 35.63588 | -120.60856 | 3069 ft | 130 kts | 104° |
| 2026-04-26 04:55 | 35.63371 | -120.59777 | 3393 ft | 129 kts | 109° |
| 2026-04-26 04:55 | 35.63081 | -120.58745 | 3718 ft | 129 kts | 117° |
| 2026-04-26 04:55 | 35.62642 | -120.57786 | 4039 ft | 127 kts | 124° |
| 2026-04-26 04:55 | 35.62187 | -120.56859 | 4354 ft | 129 kts | 124° |
| 2026-04-26 04:56 | 35.61725 | -120.55908 | 4669 ft | 129 kts | 122° |
| 2026-04-26 04:56 | 35.61270 | -120.54978 | 5014 ft | 127 kts | 126° |
| 2026-04-26 04:56 | 35.60733 | -120.54093 | 5299 ft | 129 kts | 132° |
| 2026-04-26 04:56 | 35.60205 | -120.53224 | 5659 ft | 127 kts | 126° |
| 2026-04-26 04:57 | 35.59730 | -120.52282 | 5933 ft | 131 kts | 120° |
| 2026-04-26 04:57 | 35.59293 | -120.51321 | 6279 ft | 128 kts | 125° |
| 2026-04-26 04:57 | 35.58812 | -120.50395 | 6559 ft | 131 kts | 124° |
| 2026-04-26 04:57 | 35.58360 | -120.49425 | 6886 ft | 131 kts | 118° |
| 2026-04-26 04:58 | 35.57953 | -120.48395 | 7123 ft | 137 kts | 119° |
| 2026-04-26 04:58 | 35.57514 | -120.47384 | 7492 ft | 132 kts | 123° |
| 2026-04-26 04:58 | 35.57023 | -120.46411 | 7740 ft | 137 kts | 123° |
| 2026-04-26 04:58 | 35.56546 | -120.45400 | 8080 ft | 134 kts | 122° |
| 2026-04-26 04:59 | 35.56100 | -120.44388 | 8345 ft | 138 kts | 120° |
| 2026-04-26 04:59 | 35.55624 | -120.43351 | 8647 ft | 137 kts | 123° |
| 2026-04-26 04:59 | 35.55143 | -120.42363 | 8980 ft | 135 kts | 121° |
| 2026-04-26 04:59 | 35.54685 | -120.41336 | 9233 ft | 139 kts | 121° |
| 2026-04-26 05:00 | 35.54210 | -120.40289 | 9508 ft | 141 kts | 121° |
| 2026-04-26 05:00 | 35.53725 | -120.39230 | 9806 ft | 143 kts | 122° |
| 2026-04-26 05:00 | 35.53236 | -120.38161 | 10098 ft | 145 kts | 122° |
| 2026-04-26 05:00 | 35.52741 | -120.37082 | 10395 ft | 145 kts | 122° |
| 2026-04-26 05:01 | 35.52242 | -120.35995 | 10685 ft | 146 kts | 122° |
| 2026-04-26 05:01 | 35.51741 | -120.34903 | 10978 ft | 147 kts | 122° |
| 2026-04-26 05:01 | 35.51237 | -120.33804 | 11264 ft | 148 kts | 122° |
| 2026-04-26 05:01 | 35.50731 | -120.32703 | 11538 ft | 149 kts | 122° |
| 2026-04-26 05:02 | 35.50222 | -120.31594 | 11833 ft | 149 kts | 123° |
| 2026-04-26 05:02 | 35.49710 | -120.30480 | 12124 ft | 150 kts | 123° |
| 2026-04-26 05:02 | 35.49196 | -120.29360 | 12419 ft | 151 kts | 123° |
| 2026-04-26 05:02 | 35.48680 | -120.28238 | 12714 ft | 151 kts | 123° |
| 2026-04-26 05:03 | 35.48162 | -120.27113 | 13000 ft | 152 kts | 123° |
| 2026-04-26 05:03 | 35.47651 | -120.26000 | 13287 ft | 152 kts | 123° |
| 2026-04-26 05:03 | 35.47132 | -120.24870 | 13580 ft | 152 kts | 124° |
| 2026-04-26 05:03 | 35.46610 | -120.23738 | 13869 ft | 152 kts | 124° |
| 2026-04-26 05:04 | 35.46081 | -120.22589 | 14162 ft | 153 kts | 124° |
| 2026-04-26 05:04 | 35.45565 | -120.21469 | 14453 ft | 153 kts | 124° |
| 2026-04-26 05:04 | 35.45034 | -120.20315 | 14751 ft | 153 kts | 125° |
| 2026-04-26 05:04 | 35.44515 | -120.19191 | 15028 ft | 154 kts | 126° |
| 2026-04-26 05:05 | 35.43982 | -120.18033 | 15311 ft | 154 kts | 125° |
| 2026-04-26 05:05 | 35.43462 | -120.16906 | 15590 ft | 154 kts | 126° |
| 2026-04-26 05:05 | 35.42935 | -120.15760 | 15881 ft | 154 kts | 126° |
| 2026-04-26 05:05 | 35.42406 | -120.14615 | 16162 ft | 155 kts | 126° |
| 2026-04-26 05:06 | 35.41870 | -120.13458 | 16396 ft | 158 kts | 126° |
| 2026-04-26 05:06 | 35.41325 | -120.12276 | 16639 ft | 160 kts | 126° |
| 2026-04-26 05:06 | 35.40772 | -120.11081 | 16891 ft | 162 kts | 127° |
| 2026-04-26 05:06 | 35.40214 | -120.09876 | 17151 ft | 163 kts | 126° |
| 2026-04-26 05:07 | 35.39655 | -120.08665 | 17417 ft | 164 kts | 127° |
| 2026-04-26 05:07 | 35.39093 | -120.07449 | 17671 ft | 164 kts | 127° |
| 2026-04-26 05:07 | 35.38527 | -120.06225 | 17936 ft | 165 kts | 127° |
| 2026-04-26 05:07 | 35.37960 | -120.04999 | 18202 ft | 165 kts | 127° |
| 2026-04-26 05:08 | 35.37391 | -120.03769 | 18469 ft | 166 kts | 127° |
| 2026-04-26 05:08 | 35.36818 | -120.02538 | 18737 ft | 166 kts | 127° |
| 2026-04-26 05:08 | 35.36256 | -120.01323 | 19001 ft | 166 kts | 126° |
| 2026-04-26 05:08 | 35.35687 | -120.00091 | 19269 ft | 166 kts | 127° |
| 2026-04-26 05:09 | 35.35116 | -119.98859 | 19538 ft | 166 kts | 127° |
| 2026-04-26 05:09 | 35.34547 | -119.97632 | 19815 ft | 166 kts | 128° |
| 2026-04-26 05:09 | 35.33978 | -119.96406 | 20087 ft | 165 kts | 127° |
| 2026-04-26 05:09 | 35.33410 | -119.95183 | 20352 ft | 165 kts | 128° |
| 2026-04-26 05:10 | 35.32843 | -119.93962 | 20619 ft | 165 kts | 127° |
| 2026-04-26 05:10 | 35.32276 | -119.92741 | 20883 ft | 165 kts | 127° |
| 2026-04-26 05:10 | 35.31692 | -119.91492 | 20982 ft | 176 kts | 127° |
| 2026-04-26 05:10 | 35.31057 | -119.90136 | 20993 ft | 190 kts | 127° |
| 2026-04-26 05:11 | 35.30381 | -119.88684 | 20994 ft | 202 kts | 126° |
| 2026-04-26 05:11 | 35.29669 | -119.87152 | 20992 ft | 212 kts | 126° |
| 2026-04-26 05:11 | 35.28928 | -119.85558 | 20990 ft | 219 kts | 126° |
| 2026-04-26 05:11 | 35.28167 | -119.83919 | 20989 ft | 224 kts | 126° |
| 2026-04-26 05:12 | 35.27389 | -119.82248 | 20979 ft | 228 kts | 126° |
| 2026-04-26 05:12 | 35.26601 | -119.80555 | 20978 ft | 230 kts | 126° |
| 2026-04-26 05:12 | 35.25802 | -119.78842 | 20969 ft | 233 kts | 126° |
| 2026-04-26 05:12 | 35.24999 | -119.77119 | 20970 ft | 234 kts | 126° |
| 2026-04-26 05:13 | 35.24190 | -119.75387 | 20970 ft | 235 kts | 126° |
| 2026-04-26 05:13 | 35.23391 | -119.73664 | 20970 ft | 236 kts | 126° |
| 2026-04-26 05:13 | 35.22574 | -119.71917 | 20971 ft | 237 kts | 126° |
| 2026-04-26 05:13 | 35.21753 | -119.70170 | 20969 ft | 237 kts | 126° |
| 2026-04-26 05:14 | 35.20936 | -119.68425 | 20969 ft | 236 kts | 126° |
| 2026-04-26 05:14 | 35.20121 | -119.66681 | 20967 ft | 235 kts | 126° |
| 2026-04-26 05:14 | 35.19311 | -119.64946 | 20963 ft | 235 kts | 126° |
| 2026-04-26 05:14 | 35.18500 | -119.63217 | 20966 ft | 234 kts | 127° |
| 2026-04-26 05:15 | 35.17687 | -119.61485 | 20963 ft | 235 kts | 127° |
| 2026-04-26 05:15 | 35.16877 | -119.59754 | 20962 ft | 234 kts | 127° |
| 2026-04-26 05:15 | 35.16064 | -119.58023 | 20961 ft | 235 kts | 127° |
| 2026-04-26 05:15 | 35.15252 | -119.56287 | 20961 ft | 236 kts | 127° |
| 2026-04-26 05:16 | 35.14433 | -119.54548 | 20959 ft | 236 kts | 127° |
| 2026-04-26 05:16 | 35.13626 | -119.52832 | 20959 ft | 236 kts | 127° |
| 2026-04-26 05:16 | 35.12806 | -119.51092 | 20959 ft | 237 kts | 127° |
| 2026-04-26 05:16 | 35.11985 | -119.49346 | 20960 ft | 237 kts | 127° |
| 2026-04-26 05:17 | 35.11164 | -119.47598 | 20961 ft | 237 kts | 127° |
| 2026-04-26 05:17 | 35.10342 | -119.45852 | 20961 ft | 237 kts | 127° |
| 2026-04-26 05:17 | 35.09524 | -119.44114 | 20959 ft | 235 kts | 127° |
| 2026-04-26 05:17 | 35.08712 | -119.42389 | 20957 ft | 234 kts | 127° |
| 2026-04-26 05:18 | 35.07902 | -119.40675 | 20956 ft | 232 kts | 128° |
| 2026-04-26 05:18 | 35.07097 | -119.38975 | 20952 ft | 232 kts | 128° |
| 2026-04-26 05:18 | 35.06290 | -119.37264 | 20951 ft | 232 kts | 128° |
| 2026-04-26 05:18 | 35.05484 | -119.35557 | 20950 ft | 233 kts | 128° |
| 2026-04-26 05:19 | 35.04681 | -119.33846 | 20950 ft | 232 kts | 128° |
| 2026-04-26 05:19 | 35.03875 | -119.32142 | 20949 ft | 232 kts | 128° |
| 2026-04-26 05:19 | 35.03071 | -119.30442 | 20948 ft | 231 kts | 128° |
| 2026-04-26 05:19 | 35.02264 | -119.28740 | 20948 ft | 231 kts | 128° |
| 2026-04-26 05:20 | 35.01461 | -119.27041 | 20947 ft | 231 kts | 128° |
| 2026-04-26 05:20 | 35.00666 | -119.25364 | 20947 ft | 231 kts | 128° |
| 2026-04-26 05:20 | 34.99860 | -119.23665 | 20946 ft | 231 kts | 128° |
| 2026-04-26 05:20 | 34.99057 | -119.21969 | 20946 ft | 231 kts | 128° |
| 2026-04-26 05:21 | 34.98252 | -119.20273 | 20947 ft | 231 kts | 129° |
| 2026-04-26 05:21 | 34.97448 | -119.18578 | 20946 ft | 231 kts | 129° |
| 2026-04-26 05:21 | 34.96643 | -119.16881 | 20948 ft | 231 kts | 129° |
| 2026-04-26 05:21 | 34.95837 | -119.15185 | 20949 ft | 232 kts | 129° |
| 2026-04-26 05:22 | 34.95028 | -119.13482 | 20948 ft | 232 kts | 129° |
| 2026-04-26 05:22 | 34.94219 | -119.11780 | 20949 ft | 231 kts | 129° |
| 2026-04-26 05:22 | 34.93408 | -119.10077 | 20948 ft | 232 kts | 129° |
| 2026-04-26 05:22 | 34.92600 | -119.08378 | 20945 ft | 231 kts | 129° |
| 2026-04-26 05:23 | 34.91793 | -119.06681 | 20950 ft | 231 kts | 129° |
| 2026-04-26 05:23 | 34.90984 | -119.04984 | 20946 ft | 232 kts | 129° |
| 2026-04-26 05:23 | 34.90176 | -119.03290 | 20947 ft | 231 kts | 129° |
| 2026-04-26 05:23 | 34.89369 | -119.01595 | 20945 ft | 230 kts | 129° |
| 2026-04-26 05:24 | 34.88576 | -118.99934 | 20946 ft | 230 kts | 129° |
| 2026-04-26 05:24 | 34.87768 | -118.98247 | 20944 ft | 231 kts | 129° |
| 2026-04-26 05:24 | 34.86962 | -118.96559 | 20945 ft | 230 kts | 129° |
| 2026-04-26 05:24 | 34.86158 | -118.94876 | 20944 ft | 230 kts | 129° |
| 2026-04-26 05:25 | 34.85354 | -118.93190 | 20947 ft | 229 kts | 129° |
| 2026-04-26 05:25 | 34.84549 | -118.91505 | 20940 ft | 231 kts | 129° |
| 2026-04-26 05:25 | 34.83738 | -118.89815 | 20938 ft | 230 kts | 130° |
| 2026-04-26 05:25 | 34.82935 | -118.88133 | 20942 ft | 230 kts | 130° |
| 2026-04-26 05:26 | 34.82128 | -118.86447 | 20938 ft | 230 kts | 130° |
| 2026-04-26 05:26 | 34.81323 | -118.84766 | 20941 ft | 230 kts | 130° |
| 2026-04-26 05:26 | 34.80517 | -118.83088 | 20938 ft | 229 kts | 130° |
| 2026-04-26 05:26 | 34.79711 | -118.81408 | 20939 ft | 230 kts | 130° |
| 2026-04-26 05:27 | 34.78914 | -118.79747 | 20947 ft | 231 kts | 130° |
| 2026-04-26 05:27 | 34.78090 | -118.78028 | 20941 ft | 233 kts | 130° |
| 2026-04-26 05:27 | 34.77285 | -118.76353 | 20942 ft | 233 kts | 130° |
| 2026-04-26 05:27 | 34.76470 | -118.74656 | 20941 ft | 232 kts | 130° |
| 2026-04-26 05:28 | 34.75654 | -118.72959 | 20940 ft | 232 kts | 130° |
| 2026-04-26 05:28 | 34.74840 | -118.71267 | 20940 ft | 231 kts | 130° |
| 2026-04-26 05:28 | 34.74027 | -118.69576 | 20944 ft | 231 kts | 131° |
| 2026-04-26 05:28 | 34.73211 | -118.67886 | 20942 ft | 232 kts | 131° |
| 2026-04-26 05:29 | 34.72672 | -118.66766 | 20944 ft | 232 kts | 131° |
| 2026-04-26 05:29 | 34.71858 | -118.65073 | 20948 ft | 232 kts | 130° |
| 2026-04-26 05:29 | 34.70772 | -118.62824 | 20941 ft | 233 kts | 131° |
| 2026-04-26 05:29 | 34.69950 | -118.61122 | 20939 ft | 234 kts | 131° |
| 2026-04-26 05:30 | 34.69129 | -118.59418 | 20941 ft | 233 kts | 131° |
| 2026-04-26 05:30 | 34.68559 | -118.58315 | 20944 ft | 228 kts | 139° |
| 2026-04-26 05:30 | 34.67405 | -118.57139 | 20944 ft | 209 kts | 164° |
| 2026-04-26 05:30 | 34.66095 | -118.56396 | 20943 ft | 208 kts | 165° |
| 2026-04-26 05:31 | 34.64788 | -118.55632 | 20945 ft | 209 kts | 165° |
| 2026-04-26 05:31 | 34.63482 | -118.54864 | 20945 ft | 209 kts | 165° |
| 2026-04-26 05:31 | 34.62165 | -118.54095 | 20941 ft | 209 kts | 165° |
| 2026-04-26 05:31 | 34.60849 | -118.53326 | 20944 ft | 209 kts | 165° |
| 2026-04-26 05:32 | 34.59537 | -118.52555 | 20943 ft | 209 kts | 165° |
| 2026-04-26 05:32 | 34.58226 | -118.51787 | 20945 ft | 209 kts | 165° |
| 2026-04-26 05:32 | 34.56934 | -118.51030 | 20942 ft | 208 kts | 165° |
| 2026-04-26 05:32 | 34.55613 | -118.50258 | 20943 ft | 208 kts | 165° |
| 2026-04-26 05:33 | 34.54311 | -118.49495 | 20942 ft | 207 kts | 166° |
| 2026-04-26 05:33 | 34.53030 | -118.48746 | 20943 ft | 207 kts | 166° |
| 2026-04-26 05:33 | 34.51729 | -118.47985 | 20942 ft | 207 kts | 166° |
| 2026-04-26 05:33 | 34.50432 | -118.47226 | 20944 ft | 207 kts | 166° |
| 2026-04-26 05:34 | 34.49138 | -118.46468 | 20948 ft | 206 kts | 166° |
| 2026-04-26 05:34 | 34.47847 | -118.45713 | 20945 ft | 206 kts | 166° |
| 2026-04-26 05:34 | 34.46557 | -118.44961 | 20946 ft | 206 kts | 166° |
| 2026-04-26 05:34 | 34.45267 | -118.44207 | 20946 ft | 205 kts | 166° |
| 2026-04-26 05:35 | 34.43987 | -118.43456 | 20955 ft | 203 kts | 166° |
| 2026-04-26 05:35 | 34.42707 | -118.42712 | 20955 ft | 204 kts | 166° |
| 2026-04-26 05:35 | 34.41425 | -118.41967 | 20956 ft | 205 kts | 166° |
| 2026-04-26 05:35 | 34.40140 | -118.41218 | 20955 ft | 205 kts | 167° |
| 2026-04-26 05:36 | 34.38858 | -118.40470 | 20956 ft | 205 kts | 167° |
| 2026-04-26 05:36 | 34.37575 | -118.39722 | 20959 ft | 205 kts | 167° |
| 2026-04-26 05:36 | 34.36292 | -118.38974 | 20970 ft | 206 kts | 167° |
| 2026-04-26 05:36 | 34.35033 | -118.38243 | 20969 ft | 206 kts | 166° |
| 2026-04-26 05:37 | 34.33737 | -118.37486 | 20968 ft | 206 kts | 166° |
| 2026-04-26 05:37 | 34.32452 | -118.36737 | 20971 ft | 205 kts | 167° |
| 2026-04-26 05:37 | 34.31181 | -118.35998 | 20972 ft | 206 kts | 167° |
| 2026-04-26 05:37 | 34.29886 | -118.35247 | 20969 ft | 206 kts | 167° |
| 2026-04-26 05:38 | 34.28594 | -118.34488 | 20973 ft | 206 kts | 167° |
| 2026-04-26 05:38 | 34.27301 | -118.33740 | 20975 ft | 206 kts | 167° |
| 2026-04-26 05:38 | 34.26014 | -118.32996 | 20975 ft | 205 kts | 167° |
| 2026-04-26 05:38 | 34.24728 | -118.32254 | 20966 ft | 205 kts | 167° |
| 2026-04-26 05:39 | 34.23409 | -118.31499 | 20701 ft | 212 kts | 167° |
| 2026-04-26 05:39 | 34.22111 | -118.30730 | 20426 ft | 204 kts | 166° |
| 2026-04-26 05:39 | 34.20857 | -118.29993 | 20171 ft | 198 kts | 167° |
| 2026-04-26 05:39 | 34.19627 | -118.29284 | 19889 ft | 194 kts | 167° |
| 2026-04-26 05:40 | 34.18415 | -118.28585 | 19612 ft | 192 kts | 167° |
| 2026-04-26 05:40 | 34.17212 | -118.27889 | 19324 ft | 190 kts | 166° |
| 2026-04-26 05:40 | 34.16035 | -118.27208 | 19039 ft | 189 kts | 166° |
| 2026-04-26 05:40 | 34.14849 | -118.26524 | 18750 ft | 189 kts | 166° |
| 2026-04-26 05:41 | 34.13664 | -118.25842 | 18466 ft | 188 kts | 166° |
| 2026-04-26 05:41 | 34.12480 | -118.25155 | 18184 ft | 189 kts | 165° |
| 2026-04-26 05:41 | 34.11298 | -118.24469 | 17900 ft | 188 kts | 165° |
| 2026-04-26 05:41 | 34.10115 | -118.23802 | 17626 ft | 186 kts | 168° |
| 2026-04-26 05:42 | 34.08914 | -118.23241 | 17346 ft | 184 kts | 171° |
| 2026-04-26 05:42 | 34.07703 | -118.22724 | 17038 ft | 185 kts | 171° |
| 2026-04-26 05:42 | 34.06489 | -118.22216 | 16757 ft | 184 kts | 171° |
| 2026-04-26 05:42 | 34.05276 | -118.21708 | 16478 ft | 184 kts | 171° |
| 2026-04-26 05:43 | 34.04079 | -118.21207 | 16209 ft | 184 kts | 171° |
| 2026-04-26 05:43 | 34.02867 | -118.20694 | 15936 ft | 184 kts | 171° |
| 2026-04-26 05:43 | 34.01660 | -118.20176 | 15662 ft | 184 kts | 171° |
| 2026-04-26 05:43 | 34.00453 | -118.19663 | 15394 ft | 184 kts | 171° |
| 2026-04-26 05:44 | 33.99245 | -118.19143 | 15121 ft | 184 kts | 171° |
| 2026-04-26 05:44 | 33.98038 | -118.18906 | 14836 ft | 170 kts | 195° |
| 2026-04-26 05:44 | 33.96889 | -118.19168 | 14569 ft | 167 kts | 200° |
| 2026-04-26 05:44 | 33.95751 | -118.19464 | 14306 ft | 167 kts | 200° |
| 2026-04-26 05:45 | 33.94613 | -118.19760 | 14042 ft | 167 kts | 200° |
| 2026-04-26 05:45 | 33.93489 | -118.20050 | 13783 ft | 167 kts | 200° |
| 2026-04-26 05:45 | 33.92354 | -118.20341 | 13517 ft | 167 kts | 200° |
| 2026-04-26 05:45 | 33.91218 | -118.20631 | 13256 ft | 166 kts | 200° |
| 2026-04-26 05:46 | 33.90085 | -118.20918 | 12988 ft | 167 kts | 200° |
| 2026-04-26 05:46 | 33.88950 | -118.21199 | 12722 ft | 167 kts | 200° |
| 2026-04-26 05:46 | 33.87811 | -118.21468 | 12453 ft | 167 kts | 200° |
| 2026-04-26 05:46 | 33.86668 | -118.21734 | 12182 ft | 167 kts | 200° |
| 2026-04-26 05:47 | 33.85530 | -118.21998 | 11908 ft | 167 kts | 200° |
| 2026-04-26 05:47 | 33.84388 | -118.22258 | 11640 ft | 167 kts | 200° |
| 2026-04-26 05:47 | 33.83248 | -118.22531 | 11383 ft | 167 kts | 199° |
| 2026-04-26 05:47 | 33.82109 | -118.22812 | 11136 ft | 167 kts | 199° |
| 2026-04-26 05:48 | 33.80974 | -118.23111 | 10884 ft | 167 kts | 199° |
| 2026-04-26 05:48 | 33.79836 | -118.23428 | 10631 ft | 168 kts | 199° |
| 2026-04-26 05:48 | 33.78713 | -118.23759 | 10384 ft | 169 kts | 199° |
| 2026-04-26 05:48 | 33.77570 | -118.24107 | 10133 ft | 169 kts | 199° |
| 2026-04-26 05:49 | 33.76424 | -118.24469 | 9883 ft | 170 kts | 199° |
| 2026-04-26 05:49 | 33.74115 | -118.25152 | 9394 ft | 175 kts | 182° |
| 2026-04-26 05:49 | 33.72999 | -118.24520 | 9122 ft | 189 kts | 135° |
| 2026-04-26 05:50 | 33.72545 | -118.23041 | 8871 ft | 194 kts | 96° |
| 2026-04-26 05:50 | 33.72522 | -118.21430 | 8638 ft | 192 kts | 92° |
| 2026-04-26 05:50 | 33.72520 | -118.19836 | 8402 ft | 190 kts | 92° |
| 2026-04-26 05:50 | 33.72523 | -118.18258 | 8161 ft | 188 kts | 91° |
| 2026-04-26 05:51 | 33.72529 | -118.16690 | 7920 ft | 188 kts | 91° |
| 2026-04-26 05:51 | 33.72535 | -118.15125 | 7683 ft | 187 kts | 91° |
| 2026-04-26 05:51 | 33.72538 | -118.13588 | 7449 ft | 186 kts | 91° |
| 2026-04-26 05:51 | 33.72542 | -118.12035 | 7210 ft | 185 kts | 91° |
| 2026-04-26 05:52 | 33.72544 | -118.10494 | 6973 ft | 185 kts | 91° |
| 2026-04-26 05:52 | 33.72544 | -118.08950 | 6737 ft | 184 kts | 91° |
| 2026-04-26 05:52 | 33.72540 | -118.07414 | 6513 ft | 184 kts | 92° |
| 2026-04-26 05:52 | 33.72523 | -118.05873 | 6256 ft | 184 kts | 92° |
| 2026-04-26 05:53 | 33.72503 | -118.04333 | 5995 ft | 185 kts | 92° |
| 2026-04-26 05:53 | 33.72483 | -118.02785 | 5733 ft | 185 kts | 92° |
| 2026-04-26 05:53 | 33.72464 | -118.01265 | 5474 ft | 184 kts | 92° |
| 2026-04-26 05:53 | 33.72444 | -117.99721 | 5210 ft | 184 kts | 92° |
| 2026-04-26 05:54 | 33.72423 | -117.98192 | 4981 ft | 181 kts | 92° |
| 2026-04-26 05:54 | 33.72406 | -117.96737 | 4968 ft | 168 kts | 92° |
| 2026-04-26 05:54 | 33.72392 | -117.95350 | 4973 ft | 167 kts | 92° |
| 2026-04-26 05:54 | 33.72377 | -117.93934 | 4976 ft | 172 kts | 92° |
| 2026-04-26 05:55 | 33.72360 | -117.92490 | 4987 ft | 174 kts | 92° |
| 2026-04-26 05:55 | 33.72345 | -117.91047 | 4990 ft | 176 kts | 92° |
| 2026-04-26 05:55 | 33.72333 | -117.89570 | 4993 ft | 177 kts | 92° |
| 2026-04-26 05:55 | 33.72322 | -117.88091 | 4996 ft | 178 kts | 92° |
| 2026-04-26 05:56 | 33.72368 | -117.86611 | 4991 ft | 179 kts | 76° |
| 2026-04-26 05:56 | 33.73115 | -117.85475 | 4992 ft | 177 kts | 24° |
| 2026-04-26 05:56 | 33.74288 | -117.85413 | 4990 ft | 171 kts | 334° |
| 2026-04-26 05:56 | 33.75110 | -117.86361 | 5010 ft | 164 kts | 302° |
| 2026-04-26 05:57 | 33.75742 | -117.87499 | 5017 ft | 164 kts | 301° |
| 2026-04-26 05:57 | 33.76370 | -117.88642 | 5017 ft | 165 kts | 301° |
| 2026-04-26 05:57 | 33.77000 | -117.89800 | 5018 ft | 166 kts | 301° |
| 2026-04-26 05:57 | 33.77632 | -117.90967 | 4998 ft | 167 kts | 301° |
| 2026-04-26 05:58 | 33.78266 | -117.92139 | 5000 ft | 167 kts | 301° |
| 2026-04-26 05:58 | 33.78902 | -117.93326 | 4887 ft | 172 kts | 298° |
| 2026-04-26 05:58 | 33.79214 | -117.94711 | 4702 ft | 175 kts | 268° |
| 2026-04-26 05:58 | 33.79084 | -117.96139 | 4527 ft | 169 kts | 261° |
| 2026-04-26 05:59 | 33.78945 | -117.97524 | 4346 ft | 165 kts | 263° |
| 2026-04-26 05:59 | 33.78836 | -117.98876 | 4161 ft | 164 kts | 264° |
| 2026-04-26 05:59 | 33.78732 | -118.00236 | 3984 ft | 162 kts | 264° |
| 2026-04-26 05:59 | 33.78632 | -118.01544 | 3970 ft | 153 kts | 264° |
| 2026-04-26 06:00 | 33.78535 | -118.02788 | 3959 ft | 148 kts | 264° |
| 2026-04-26 06:00 | 33.78435 | -118.04038 | 3955 ft | 152 kts | 264° |
| 2026-04-26 06:00 | 33.78293 | -118.05312 | 3955 ft | 155 kts | 251° |
| 2026-04-26 06:00 | 33.77642 | -118.06327 | 3921 ft | 159 kts | 215° |
| 2026-04-26 06:01 | 33.76547 | -118.06687 | 3754 ft | 172 kts | 180° |
| 2026-04-26 06:01 | 33.75406 | -118.06211 | 3599 ft | 179 kts | 147° |
| 2026-04-26 06:01 | 33.74417 | -118.05308 | 3455 ft | 175 kts | 148° |
| 2026-04-26 06:01 | 33.73316 | -118.04832 | 3260 ft | 167 kts | 180° |
| 2026-04-26 06:02 | 33.72225 | -118.05200 | 3016 ft | 163 kts | 216° |
| 2026-04-26 06:02 | 33.71545 | -118.06252 | 2775 ft | 161 kts | 251° |
| 2026-04-26 06:02 | 33.71529 | -118.07567 | 2580 ft | 159 kts | 287° |
| 2026-04-26 06:02 | 33.72178 | -118.08566 | 2574 ft | 150 kts | 325° |
| 2026-04-26 06:03 | 33.73111 | -118.09057 | 2564 ft | 149 kts | 345° |
| 2026-04-26 06:03 | 33.74140 | -118.09034 | 2563 ft | 149 kts | 12° |
| 2026-04-26 06:03 | 33.75054 | -118.08470 | 2564 ft | 149 kts | 39° |
| 2026-04-26 06:03 | 33.75851 | -118.07669 | 2563 ft | 149 kts | 39° |
| 2026-04-26 06:04 | 33.76674 | -118.06901 | 2564 ft | 149 kts | 36° |
| 2026-04-26 06:04 | 33.77515 | -118.06172 | 2564 ft | 149 kts | 34° |
| 2026-04-26 06:04 | 33.78366 | -118.05452 | 2565 ft | 150 kts | 34° |
| 2026-04-26 06:04 | 33.79233 | -118.04718 | 2433 ft | 154 kts | 34° |
| 2026-04-26 06:05 | 33.80097 | -118.03992 | 2268 ft | 146 kts | 34° |
| 2026-04-26 06:05 | 33.80907 | -118.03316 | 2080 ft | 139 kts | 33° |
| 2026-04-26 06:05 | 33.81692 | -118.02657 | 1888 ft | 135 kts | 33° |
| 2026-04-26 06:05 | 33.82470 | -118.02003 | 1693 ft | 137 kts | 33° |
| 2026-04-26 06:06 | 33.83246 | -118.01351 | 1520 ft | 134 kts | 33° |
| 2026-04-26 06:06 | 33.83978 | -118.00735 | 1417 ft | 128 kts | 33° |
| 2026-04-26 06:06 | 33.84707 | -118.00110 | 1242 ft | 127 kts | 33° |
| 2026-04-26 06:06 | 33.85416 | -117.99504 | 1047 ft | 124 kts | 33° |
| 2026-04-26 06:07 | 33.86009 | -117.98789 | 912 ft | 119 kts | 59° |
| 2026-04-26 06:07 | 33.86227 | -117.97846 | 831 ft | 114 kts | 81° |
| 2026-04-26 06:07 | 33.86286 | -117.96935 | 840 ft | 110 kts | 85° |
| 2026-04-26 06:07 | 33.86307 | -117.95991 | 771 ft | 114 kts | 88° |
| 2026-04-26 06:08 | 33.86368 | -117.95065 | 680 ft | 108 kts | 67° |
| 2026-04-26 06:08 | 33.86906 | -117.94541 | 573 ft | 100 kts | 2° |
| 2026-04-26 06:08 | 33.87498 | -117.94894 | 483 ft | 98 kts | 300° |
| 2026-04-26 06:08 | 33.87632 | -117.95666 | 396 ft | 93 kts | 268° |
| 2026-04-26 06:09 | 33.87504 | -117.96439 | 304 ft | 95 kts | 257° |
| 2026-04-26 06:09 | 33.87354 | -117.97209 | 173 ft | 94 kts | 258° |
| 2026-04-26 06:09 | 33.87219 | -117.97912 | 95 ft | 75 kts | 258° |
| 2026-04-26 06:09 | 33.87144 | -117.98293 | 84 ft | 24 kts | 249° |
| 2026-04-26 06:10 | 33.87100 | -117.98322 | 83 ft | 5 kts | 123° |
| 2026-04-26 06:10 | 33.87099 | -117.98319 | 84 ft | 0 kts | 99° |
| 2026-04-26 06:10 | 33.87098 | -117.98315 | 84 ft | 5 kts | 98° |
| 2026-04-26 06:11 | 33.87109 | -117.98248 | 86 ft | 7 kts | 76° |
| 2026-04-26 06:11 | 33.87119 | -117.98195 | 91 ft | 5 kts | 77° |
| 2026-04-26 06:11 | 33.87133 | -117.98125 | 92 ft | 14 kts | 77° |
| 2026-04-26 06:11 | 33.87152 | -117.98017 | 93 ft | 7 kts | 76° |
| 2026-04-26 06:12 | 33.87159 | -117.97987 | 95 ft | 9 kts | 77° |
| 2026-04-26 06:12 | 33.87128 | -117.97924 | 94 ft | 11 kts | 173° |
| 2026-04-26 06:12 | 33.87069 | -117.97929 | 95 ft | 8 kts | 252° |
| 2026-04-26 06:12 | 33.87106 | -117.97975 | 93 ft | 3 kts | 267° |
| 2026-04-26 06:13 | 33.87106 | -117.97976 | 93 ft | 0 kts | 267° |